sensor_id;sensor_type;location;lat;lon;timestamp;temperature;humidity
306;DHT22;137;48.578;9.180;2023-09-19T00:00:15;16.00;98.20
306;DHT22;137;48.578;9.180;2023-09-19T00:02:46;16.00;98.20
306;DHT22;137;48.578;9.180;2023-09-19T00:05:13;16.00;98.20
306;DHT22;137;48.578;9.180;2023-09-19T00:07:40;16.00;98.20
306;DHT22;137;48.578;9.180;2023-09-19T00:10:07;15.90;98.20
306;DHT22;137;48.578;9.180;2023-09-19T00:12:35;15.90;98.20
306;DHT22;137;48.578;9.180;2023-09-19T00:15:02;16.00;98.20
306;DHT22;137;48.578;9.180;2023-09-19T00:17:29;16.00;98.20
306;DHT22;137;48.578;9.180;2023-09-19T00:19:58;16.00;98.20
306;DHT22;137;48.578;9.180;2023-09-19T00:22:39;16.00;98.20
306;DHT22;137;48.578;9.180;2023-09-19T00:25:06;16.00;98.20
306;DHT22;137;48.578;9.180;2023-09-19T00:27:33;16.00;98.20
306;DHT22;137;48.578;9.180;2023-09-19T00:30:00;16.00;98.20
306;DHT22;137;48.578;9.180;2023-09-19T00:32:29;16.00;98.20
306;DHT22;137;48.578;9.180;2023-09-19T00:34:58;16.00;98.20
306;DHT22;137;48.578;9.180;2023-09-19T00:37:25;16.00;98.20
306;DHT22;137;48.578;9.180;2023-09-19T00:39:52;16.00;98.20
306;DHT22;137;48.578;9.180;2023-09-19T00:42:19;16.00;98.20
306;DHT22;137;48.578;9.180;2023-09-19T00:44:47;16.00;98.20
306;DHT22;137;48.578;9.180;2023-09-19T00:47:16;16.00;98.20
306;DHT22;137;48.578;9.180;2023-09-19T00:49:43;16.00;98.20
306;DHT22;137;48.578;9.180;2023-09-19T00:52:16;16.00;98.20
306;DHT22;137;48.578;9.180;2023-09-19T00:54:45;16.00;98.20
306;DHT22;137;48.578;9.180;2023-09-19T00:57:12;16.00;98.20
306;DHT22;137;48.578;9.180;2023-09-19T00:59:40;15.90;98.20
306;DHT22;137;48.578;9.180;2023-09-19T01:02:07;16.00;98.20
306;DHT22;137;48.578;9.180;2023-09-19T01:04:34;16.00;98.20
306;DHT22;137;48.578;9.180;2023-09-19T01:07:01;16.00;98.20
306;DHT22;137;48.578;9.180;2023-09-19T01:09:30;16.00;98.20
306;DHT22;137;48.578;9.180;2023-09-19T01:12:04;16.00;98.20
306;DHT22;137;48.578;9.180;2023-09-19T01:14:40;16.00;98.20
306;DHT22;137;48.578;9.180;2023-09-19T01:17:14;16.00;98.20
306;DHT22;137;48.578;9.180;2023-09-19T01:20:03;16.00;98.20
306;DHT22;137;48.578;9.180;2023-09-19T01:22:42;16.00;98.20
306;DHT22;137;48.578;9.180;2023-09-19T01:25:50;15.90;98.20
306;DHT22;137;48.578;9.180;2023-09-19T01:28:30;16.00;98.20
306;DHT22;137;48.578;9.180;2023-09-19T01:31:05;15.90;98.20
306;DHT22;137;48.578;9.180;2023-09-19T01:33:53;15.90;98.20
306;DHT22;137;48.578;9.180;2023-09-19T01:36:20;15.90;98.20
306;DHT22;137;48.578;9.180;2023-09-19T01:38:48;15.90;98.20
306;DHT22;137;48.578;9.180;2023-09-19T01:41:19;15.90;98.20
306;DHT22;137;48.578;9.180;2023-09-19T01:43:49;15.90;98.20
306;DHT22;137;48.578;9.180;2023-09-19T01:46:21;16.00;98.20
306;DHT22;137;48.578;9.180;2023-09-19T01:48:58;16.00;98.20
306;DHT22;137;48.578;9.180;2023-09-19T01:51:33;16.00;98.20
306;DHT22;137;48.578;9.180;2023-09-19T01:54:03;16.00;98.20
306;DHT22;137;48.578;9.180;2023-09-19T01:56:37;15.90;98.20
306;DHT22;137;48.578;9.180;2023-09-19T01:59:08;16.00;98.20
306;DHT22;137;48.578;9.180;2023-09-19T02:01:38;16.00;98.20
306;DHT22;137;48.578;9.180;2023-09-19T02:04:05;16.00;98.20
306;DHT22;137;48.578;9.180;2023-09-19T02:06:34;15.90;98.20
306;DHT22;137;48.578;9.180;2023-09-19T02:09:01;15.90;98.20
306;DHT22;137;48.578;9.180;2023-09-19T02:11:29;15.90;98.20
306;DHT22;137;48.578;9.180;2023-09-19T02:13:56;15.80;98.20
306;DHT22;137;48.578;9.180;2023-09-19T02:16:22;15.80;98.20
306;DHT22;137;48.578;9.180;2023-09-19T02:18:51;15.80;98.20
306;DHT22;137;48.578;9.180;2023-09-19T02:21:18;15.80;98.20
306;DHT22;137;48.578;9.180;2023-09-19T02:23:45;15.70;98.20
306;DHT22;137;48.578;9.180;2023-09-19T02:26:12;15.70;98.20
306;DHT22;137;48.578;9.180;2023-09-19T02:28:39;15.60;98.20
306;DHT22;137;48.578;9.180;2023-09-19T02:31:06;15.60;98.20
306;DHT22;137;48.578;9.180;2023-09-19T02:33:33;15.50;98.20
306;DHT22;137;48.578;9.180;2023-09-19T02:36:03;15.50;98.20
306;DHT22;137;48.578;9.180;2023-09-19T02:38:30;15.50;98.20
306;DHT22;137;48.578;9.180;2023-09-19T02:40:57;15.40;98.20
306;DHT22;137;48.578;9.180;2023-09-19T02:43:24;15.40;98.20
306;DHT22;137;48.578;9.180;2023-09-19T02:45:51;15.40;98.20
306;DHT22;137;48.578;9.180;2023-09-19T02:48:19;15.30;98.20
306;DHT22;137;48.578;9.180;2023-09-19T02:50:49;15.20;98.20
306;DHT22;137;48.578;9.180;2023-09-19T02:53:18;15.20;98.20
306;DHT22;137;48.578;9.180;2023-09-19T02:55:45;15.20;98.20
306;DHT22;137;48.578;9.180;2023-09-19T02:58:13;15.10;98.20
306;DHT22;137;48.578;9.180;2023-09-19T03:00:40;15.10;98.20
306;DHT22;137;48.578;9.180;2023-09-19T03:03:08;15.10;98.20
306;DHT22;137;48.578;9.180;2023-09-19T03:05:35;15.10;98.20
306;DHT22;137;48.578;9.180;2023-09-19T03:08:04;15.10;98.20
306;DHT22;137;48.578;9.180;2023-09-19T03:10:33;15.10;98.20
306;DHT22;137;48.578;9.180;2023-09-19T03:13:03;15.20;98.20
306;DHT22;137;48.578;9.180;2023-09-19T03:15:30;15.20;98.20
306;DHT22;137;48.578;9.180;2023-09-19T03:17:56;15.30;98.20
306;DHT22;137;48.578;9.180;2023-09-19T03:20:25;15.30;98.20
306;DHT22;137;48.578;9.180;2023-09-19T03:22:53;15.40;98.20
306;DHT22;137;48.578;9.180;2023-09-19T03:25:19;15.40;98.20
306;DHT22;137;48.578;9.180;2023-09-19T03:27:49;15.40;98.20
306;DHT22;137;48.578;9.180;2023-09-19T03:30:16;15.50;98.20
306;DHT22;137;48.578;9.180;2023-09-19T03:32:44;15.50;98.20
306;DHT22;137;48.578;9.180;2023-09-19T03:35:13;15.50;98.20
306;DHT22;137;48.578;9.180;2023-09-19T03:37:40;15.50;98.20
306;DHT22;137;48.578;9.180;2023-09-19T03:40:08;15.50;98.20
306;DHT22;137;48.578;9.180;2023-09-19T03:42:38;15.60;98.20
306;DHT22;137;48.578;9.180;2023-09-19T03:45:07;15.60;98.20
306;DHT22;137;48.578;9.180;2023-09-19T03:47:37;15.60;98.20
306;DHT22;137;48.578;9.180;2023-09-19T03:50:05;15.60;98.20
306;DHT22;137;48.578;9.180;2023-09-19T03:52:33;15.60;98.20
306;DHT22;137;48.578;9.180;2023-09-19T03:55:00;15.60;98.20
306;DHT22;137;48.578;9.180;2023-09-19T03:57:28;15.60;98.20
306;DHT22;137;48.578;9.180;2023-09-19T03:59:54;15.60;98.20
306;DHT22;137;48.578;9.180;2023-09-19T04:02:22;15.60;98.20
306;DHT22;137;48.578;9.180;2023-09-19T04:04:50;15.60;98.20
306;DHT22;137;48.578;9.180;2023-09-19T04:07:17;15.60;98.20
306;DHT22;137;48.578;9.180;2023-09-19T04:09:47;15.60;98.20
306;DHT22;137;48.578;9.180;2023-09-19T04:12:14;15.60;98.20
306;DHT22;137;48.578;9.180;2023-09-19T04:14:42;15.60;98.20
306;DHT22;137;48.578;9.180;2023-09-19T04:17:09;15.50;98.20
306;DHT22;137;48.578;9.180;2023-09-19T04:19:37;15.50;98.20
306;DHT22;137;48.578;9.180;2023-09-19T04:22:04;15.40;98.20
306;DHT22;137;48.578;9.180;2023-09-19T04:24:31;15.40;98.20
306;DHT22;137;48.578;9.180;2023-09-19T04:26:59;15.30;98.20
306;DHT22;137;48.578;9.180;2023-09-19T04:29:26;15.30;98.20
306;DHT22;137;48.578;9.180;2023-09-19T04:31:55;15.20;98.20
306;DHT22;137;48.578;9.180;2023-09-19T04:34:23;15.20;98.20
306;DHT22;137;48.578;9.180;2023-09-19T04:36:51;15.10;98.20
306;DHT22;137;48.578;9.180;2023-09-19T04:39:18;15.00;98.20
306;DHT22;137;48.578;9.180;2023-09-19T04:41:45;15.00;98.20
306;DHT22;137;48.578;9.180;2023-09-19T04:44:13;15.00;98.20
306;DHT22;137;48.578;9.180;2023-09-19T04:46:40;15.00;98.20
306;DHT22;137;48.578;9.180;2023-09-19T04:49:06;15.00;98.20
306;DHT22;137;48.578;9.180;2023-09-19T04:51:33;15.10;98.20
306;DHT22;137;48.578;9.180;2023-09-19T04:54:03;15.10;98.20
306;DHT22;137;48.578;9.180;2023-09-19T04:56:30;15.10;98.20
306;DHT22;137;48.578;9.180;2023-09-19T04:58:57;15.20;98.20
306;DHT22;137;48.578;9.180;2023-09-19T05:01:24;15.20;98.20
306;DHT22;137;48.578;9.180;2023-09-19T05:03:50;15.20;98.20
306;DHT22;137;48.578;9.180;2023-09-19T05:06:18;15.30;98.20
306;DHT22;137;48.578;9.180;2023-09-19T05:08:46;15.30;98.20
306;DHT22;137;48.578;9.180;2023-09-19T05:11:18;15.40;98.20
306;DHT22;137;48.578;9.180;2023-09-19T05:13:44;15.40;98.20
306;DHT22;137;48.578;9.180;2023-09-19T05:16:11;15.40;98.20
306;DHT22;137;48.578;9.180;2023-09-19T05:18:38;15.50;98.20
306;DHT22;137;48.578;9.180;2023-09-19T05:21:05;15.50;98.20
306;DHT22;137;48.578;9.180;2023-09-19T05:23:31;15.60;98.20
306;DHT22;137;48.578;9.180;2023-09-19T05:25:58;15.60;98.20
306;DHT22;137;48.578;9.180;2023-09-19T05:28:27;15.60;98.20
306;DHT22;137;48.578;9.180;2023-09-19T05:30:53;15.70;98.20
306;DHT22;137;48.578;9.180;2023-09-19T05:33:20;15.70;98.20
306;DHT22;137;48.578;9.180;2023-09-19T05:35:48;15.80;98.20
306;DHT22;137;48.578;9.180;2023-09-19T05:38:15;15.80;98.20
306;DHT22;137;48.578;9.180;2023-09-19T05:40:45;15.80;98.20
306;DHT22;137;48.578;9.180;2023-09-19T05:43:12;15.90;98.20
306;DHT22;137;48.578;9.180;2023-09-19T05:45:40;15.90;98.20
306;DHT22;137;48.578;9.180;2023-09-19T05:48:08;15.90;98.20
306;DHT22;137;48.578;9.180;2023-09-19T05:50:35;16.00;98.20
306;DHT22;137;48.578;9.180;2023-09-19T05:53:02;16.00;98.20
306;DHT22;137;48.578;9.180;2023-09-19T05:55:30;16.00;98.20
306;DHT22;137;48.578;9.180;2023-09-19T05:57:56;16.10;98.20
306;DHT22;137;48.578;9.180;2023-09-19T06:00:24;16.10;98.20
306;DHT22;137;48.578;9.180;2023-09-19T06:02:54;16.10;98.20
306;DHT22;137;48.578;9.180;2023-09-19T06:05:22;16.10;98.20
306;DHT22;137;48.578;9.180;2023-09-19T06:07:50;16.00;98.20
306;DHT22;137;48.578;9.180;2023-09-19T06:10:18;15.90;98.20
306;DHT22;137;48.578;9.180;2023-09-19T06:12:46;15.90;98.20
306;DHT22;137;48.578;9.180;2023-09-19T06:15:14;15.80;98.20
306;DHT22;137;48.578;9.180;2023-09-19T06:17:42;15.80;98.20
306;DHT22;137;48.578;9.180;2023-09-19T06:20:10;15.80;98.20
306;DHT22;137;48.578;9.180;2023-09-19T06:22:40;15.70;98.20
306;DHT22;137;48.578;9.180;2023-09-19T06:25:08;15.70;98.20
306;DHT22;137;48.578;9.180;2023-09-19T06:27:37;15.70;98.20
306;DHT22;137;48.578;9.180;2023-09-19T06:30:05;15.70;98.20
306;DHT22;137;48.578;9.180;2023-09-19T06:32:33;15.70;98.20
306;DHT22;137;48.578;9.180;2023-09-19T06:35:00;15.70;98.20
306;DHT22;137;48.578;9.180;2023-09-19T06:37:29;15.70;98.20
306;DHT22;137;48.578;9.180;2023-09-19T06:39:56;15.80;98.20
306;DHT22;137;48.578;9.180;2023-09-19T06:42:23;15.80;98.20
306;DHT22;137;48.578;9.180;2023-09-19T06:44:49;15.90;98.20
306;DHT22;137;48.578;9.180;2023-09-19T06:47:16;16.00;98.20
306;DHT22;137;48.578;9.180;2023-09-19T06:49:43;16.10;98.20
306;DHT22;137;48.578;9.180;2023-09-19T06:52:10;16.20;98.20
306;DHT22;137;48.578;9.180;2023-09-19T06:54:38;16.30;98.20
306;DHT22;137;48.578;9.180;2023-09-19T06:57:07;16.40;98.20
306;DHT22;137;48.578;9.180;2023-09-19T06:59:35;16.50;98.20
306;DHT22;137;48.578;9.180;2023-09-19T07:02:03;16.60;98.20
306;DHT22;137;48.578;9.180;2023-09-19T07:04:31;16.70;98.20
306;DHT22;137;48.578;9.180;2023-09-19T07:06:58;16.80;98.20
306;DHT22;137;48.578;9.180;2023-09-19T07:09:25;16.90;98.20
306;DHT22;137;48.578;9.180;2023-09-19T07:11:54;17.00;98.20
306;DHT22;137;48.578;9.180;2023-09-19T07:14:21;17.10;98.20
306;DHT22;137;48.578;9.180;2023-09-19T07:16:48;17.30;98.20
306;DHT22;137;48.578;9.180;2023-09-19T07:19:15;17.40;98.20
306;DHT22;137;48.578;9.180;2023-09-19T07:21:41;17.50;98.20
306;DHT22;137;48.578;9.180;2023-09-19T07:24:08;17.60;98.20
306;DHT22;137;48.578;9.180;2023-09-19T07:26:35;17.60;98.20
306;DHT22;137;48.578;9.180;2023-09-19T07:29:03;17.70;98.20
306;DHT22;137;48.578;9.180;2023-09-19T07:31:34;17.90;98.20
306;DHT22;137;48.578;9.180;2023-09-19T07:34:01;17.90;98.20
306;DHT22;137;48.578;9.180;2023-09-19T07:36:29;17.90;98.20
306;DHT22;137;48.578;9.180;2023-09-19T07:38:56;17.90;98.20
306;DHT22;137;48.578;9.180;2023-09-19T07:41:23;17.90;98.20
306;DHT22;137;48.578;9.180;2023-09-19T07:43:51;17.90;98.20
306;DHT22;137;48.578;9.180;2023-09-19T07:46:19;17.90;98.20
306;DHT22;137;48.578;9.180;2023-09-19T07:48:46;17.90;98.20
306;DHT22;137;48.578;9.180;2023-09-19T07:51:14;18.00;98.20
306;DHT22;137;48.578;9.180;2023-09-19T07:53:41;18.00;98.20
306;DHT22;137;48.578;9.180;2023-09-19T07:56:09;18.00;98.20
306;DHT22;137;48.578;9.180;2023-09-19T07:58:39;18.00;98.20
306;DHT22;137;48.578;9.180;2023-09-19T08:01:07;18.10;98.20
306;DHT22;137;48.578;9.180;2023-09-19T08:03:36;18.20;98.20
306;DHT22;137;48.578;9.180;2023-09-19T08:06:06;18.40;98.20
306;DHT22;137;48.578;9.180;2023-09-19T08:08:33;18.50;98.20
306;DHT22;137;48.578;9.180;2023-09-19T08:11:03;18.60;98.20
306;DHT22;137;48.578;9.180;2023-09-19T08:13:36;18.70;98.20
306;DHT22;137;48.578;9.180;2023-09-19T08:16:03;18.80;98.20
306;DHT22;137;48.578;9.180;2023-09-19T08:18:30;19.10;98.20
306;DHT22;137;48.578;9.180;2023-09-19T08:20:58;19.30;98.20
306;DHT22;137;48.578;9.180;2023-09-19T08:23:27;19.30;98.20
306;DHT22;137;48.578;9.180;2023-09-19T08:25:56;19.30;98.20
306;DHT22;137;48.578;9.180;2023-09-19T08:28:23;19.20;98.20
306;DHT22;137;48.578;9.180;2023-09-19T08:30:49;19.10;98.20
306;DHT22;137;48.578;9.180;2023-09-19T08:33:16;18.90;98.20
306;DHT22;137;48.578;9.180;2023-09-19T08:35:43;19.10;98.20
306;DHT22;137;48.578;9.180;2023-09-19T08:38:13;19.00;98.20
306;DHT22;137;48.578;9.180;2023-09-19T08:40:41;19.10;98.20
306;DHT22;137;48.578;9.180;2023-09-19T08:43:09;19.10;98.20
306;DHT22;137;48.578;9.180;2023-09-19T08:45:36;19.10;98.20
306;DHT22;137;48.578;9.180;2023-09-19T08:48:19;19.10;98.20
306;DHT22;137;48.578;9.180;2023-09-19T08:50:51;19.10;98.20
306;DHT22;137;48.578;9.180;2023-09-19T08:53:26;19.00;98.20
306;DHT22;137;48.578;9.180;2023-09-19T08:55:55;19.10;98.20
306;DHT22;137;48.578;9.180;2023-09-19T08:58:26;19.20;98.20
306;DHT22;137;48.578;9.180;2023-09-19T09:00:55;19.30;98.20
306;DHT22;137;48.578;9.180;2023-09-19T09:03:23;19.40;98.20
306;DHT22;137;48.578;9.180;2023-09-19T09:05:50;19.70;98.20
306;DHT22;137;48.578;9.180;2023-09-19T09:08:19;20.00;98.20
306;DHT22;137;48.578;9.180;2023-09-19T09:10:49;20.20;98.20
306;DHT22;137;48.578;9.180;2023-09-19T09:13:16;20.60;98.20
306;DHT22;137;48.578;9.180;2023-09-19T09:15:44;20.90;98.20
306;DHT22;137;48.578;9.180;2023-09-19T09:18:11;21.20;98.20
306;DHT22;137;48.578;9.180;2023-09-19T09:20:38;21.40;98.20
306;DHT22;137;48.578;9.180;2023-09-19T09:23:05;21.30;98.20
306;DHT22;137;48.578;9.180;2023-09-19T09:25:50;21.40;98.20
306;DHT22;137;48.578;9.180;2023-09-19T09:28:21;21.30;98.20
306;DHT22;137;48.578;9.180;2023-09-19T09:30:48;21.50;98.20
306;DHT22;137;48.578;9.180;2023-09-19T09:33:16;21.60;98.20
306;DHT22;137;48.578;9.180;2023-09-19T09:35:52;21.50;98.20
306;DHT22;137;48.578;9.180;2023-09-19T09:38:20;21.10;98.20
306;DHT22;137;48.578;9.180;2023-09-19T09:40:53;21.00;98.20
306;DHT22;137;48.578;9.180;2023-09-19T09:43:26;20.80;98.20
306;DHT22;137;48.578;9.180;2023-09-19T09:46:07;20.70;98.20
306;DHT22;137;48.578;9.180;2023-09-19T09:49:00;20.70;98.20
306;DHT22;137;48.578;9.180;2023-09-19T09:52:00;20.90;98.20
306;DHT22;137;48.578;9.180;2023-09-19T09:54:31;21.10;98.20
306;DHT22;137;48.578;9.180;2023-09-19T09:57:05;21.10;98.20
306;DHT22;137;48.578;9.180;2023-09-19T09:59:47;21.00;98.20
306;DHT22;137;48.578;9.180;2023-09-19T10:02:16;21.10;98.20
306;DHT22;137;48.578;9.180;2023-09-19T10:04:49;21.10;98.20
306;DHT22;137;48.578;9.180;2023-09-19T10:07:25;21.20;98.20
306;DHT22;137;48.578;9.180;2023-09-19T10:09:53;21.50;98.20
306;DHT22;137;48.578;9.180;2023-09-19T10:12:27;21.60;98.20
306;DHT22;137;48.578;9.180;2023-09-19T10:14:57;21.40;98.20
306;DHT22;137;48.578;9.180;2023-09-19T10:17:28;21.60;98.20
306;DHT22;137;48.578;9.180;2023-09-19T10:19:56;21.80;98.20
306;DHT22;137;48.578;9.180;2023-09-19T10:22:24;22.00;98.20
306;DHT22;137;48.578;9.180;2023-09-19T10:24:53;22.10;98.20
306;DHT22;137;48.578;9.180;2023-09-19T10:27:21;22.30;98.20
306;DHT22;137;48.578;9.180;2023-09-19T10:29:54;22.30;98.20
306;DHT22;137;48.578;9.180;2023-09-19T10:32:22;21.80;98.20
306;DHT22;137;48.578;9.180;2023-09-19T10:34:50;21.60;98.20
306;DHT22;137;48.578;9.180;2023-09-19T10:37:22;21.30;98.20
306;DHT22;137;48.578;9.180;2023-09-19T10:39:52;21.40;98.20
306;DHT22;137;48.578;9.180;2023-09-19T10:42:20;21.30;98.20
306;DHT22;137;48.578;9.180;2023-09-19T10:44:48;21.10;98.20
306;DHT22;137;48.578;9.180;2023-09-19T10:47:20;21.20;98.20
306;DHT22;137;48.578;9.180;2023-09-19T10:49:49;21.10;98.20
306;DHT22;137;48.578;9.180;2023-09-19T10:52:20;21.40;98.20
306;DHT22;137;48.578;9.180;2023-09-19T10:54:50;21.40;98.20
306;DHT22;137;48.578;9.180;2023-09-19T10:57:20;21.30;98.20
306;DHT22;137;48.578;9.180;2023-09-19T11:00:03;21.10;98.20
306;DHT22;137;48.578;9.180;2023-09-19T11:03:18;20.90;98.20
306;DHT22;137;48.578;9.180;2023-09-19T11:06:11;20.80;98.20
306;DHT22;137;48.578;9.180;2023-09-19T11:09:06;20.70;98.20
306;DHT22;137;48.578;9.180;2023-09-19T11:11:46;20.60;98.20
306;DHT22;137;48.578;9.180;2023-09-19T11:14:40;20.60;98.20
306;DHT22;137;48.578;9.180;2023-09-19T11:17:41;20.40;98.20
306;DHT22;137;48.578;9.180;2023-09-19T11:20:24;20.60;98.20
306;DHT22;137;48.578;9.180;2023-09-19T11:23:21;20.80;98.20
306;DHT22;137;48.578;9.180;2023-09-19T11:25:56;21.10;98.20
306;DHT22;137;48.578;9.180;2023-09-19T11:28:33;21.20;98.20
306;DHT22;137;48.578;9.180;2023-09-19T11:31:41;21.10;98.20
306;DHT22;137;48.578;9.180;2023-09-19T11:34:43;21.80;98.20
306;DHT22;137;48.578;9.180;2023-09-19T11:40:37;22.30;98.20
306;DHT22;137;48.578;9.180;2023-09-19T11:43:32;22.40;98.20
306;DHT22;137;48.578;9.180;2023-09-19T11:46:05;22.80;98.20
306;DHT22;137;48.578;9.180;2023-09-19T11:48:32;23.10;98.20
306;DHT22;137;48.578;9.180;2023-09-19T11:51:00;23.40;98.20
306;DHT22;137;48.578;9.180;2023-09-19T11:53:33;23.40;98.20
306;DHT22;137;48.578;9.180;2023-09-19T11:56:06;23.00;98.20
306;DHT22;137;48.578;9.180;2023-09-19T11:58:37;22.60;98.20
306;DHT22;137;48.578;9.180;2023-09-19T12:01:05;22.30;98.20
306;DHT22;137;48.578;9.180;2023-09-19T12:03:40;22.40;98.20
306;DHT22;137;48.578;9.180;2023-09-19T12:06:11;22.20;98.20
306;DHT22;137;48.578;9.180;2023-09-19T12:08:40;21.80;98.20
306;DHT22;137;48.578;9.180;2023-09-19T12:11:13;21.90;98.20
306;DHT22;137;48.578;9.180;2023-09-19T12:13:42;22.00;98.20
306;DHT22;137;48.578;9.180;2023-09-19T12:16:15;22.60;98.20
306;DHT22;137;48.578;9.180;2023-09-19T12:18:42;23.10;98.20
306;DHT22;137;48.578;9.180;2023-09-19T12:21:24;23.50;98.20
306;DHT22;137;48.578;9.180;2023-09-19T12:24:03;23.80;98.20
306;DHT22;137;48.578;9.180;2023-09-19T12:26:38;23.90;98.20
306;DHT22;137;48.578;9.180;2023-09-19T12:29:11;24.00;98.20
306;DHT22;137;48.578;9.180;2023-09-19T12:31:50;24.00;98.20
306;DHT22;137;48.578;9.180;2023-09-19T12:34:19;24.30;98.20
306;DHT22;137;48.578;9.180;2023-09-19T12:36:46;24.40;98.20
306;DHT22;137;48.578;9.180;2023-09-19T12:39:22;24.50;98.20
306;DHT22;137;48.578;9.180;2023-09-19T12:41:52;24.40;98.20
306;DHT22;137;48.578;9.180;2023-09-19T12:44:20;24.40;98.20
306;DHT22;137;48.578;9.180;2023-09-19T12:46:46;24.30;98.20
306;DHT22;137;48.578;9.180;2023-09-19T12:49:17;24.30;98.20
306;DHT22;137;48.578;9.180;2023-09-19T12:51:45;24.10;98.20
306;DHT22;137;48.578;9.180;2023-09-19T12:54:12;24.20;98.20
306;DHT22;137;48.578;9.180;2023-09-19T12:56:41;24.10;98.20
306;DHT22;137;48.578;9.180;2023-09-19T12:59:12;23.80;98.20
306;DHT22;137;48.578;9.180;2023-09-19T13:01:40;23.80;98.20
306;DHT22;137;48.578;9.180;2023-09-19T13:04:11;23.80;98.20
306;DHT22;137;48.578;9.180;2023-09-19T13:06:40;23.80;98.20
306;DHT22;137;48.578;9.180;2023-09-19T13:09:10;23.40;98.20
306;DHT22;137;48.578;9.180;2023-09-19T13:11:38;23.00;98.20
306;DHT22;137;48.578;9.180;2023-09-19T13:14:21;23.40;98.20
306;DHT22;137;48.578;9.180;2023-09-19T13:16:59;23.90;98.20
306;DHT22;137;48.578;9.180;2023-09-19T13:19:40;24.10;98.20
306;DHT22;137;48.578;9.180;2023-09-19T13:22:38;24.10;98.20
306;DHT22;137;48.578;9.180;2023-09-19T13:25:06;23.90;98.20
306;DHT22;137;48.578;9.180;2023-09-19T13:27:33;23.90;98.20
306;DHT22;137;48.578;9.180;2023-09-19T13:30:02;24.00;98.20
306;DHT22;137;48.578;9.180;2023-09-19T13:32:32;24.00;98.20
306;DHT22;137;48.578;9.180;2023-09-19T13:34:58;24.00;98.20
306;DHT22;137;48.578;9.180;2023-09-19T13:37:25;24.20;98.20
306;DHT22;137;48.578;9.180;2023-09-19T13:39:52;24.10;98.20
306;DHT22;137;48.578;9.180;2023-09-19T13:42:19;24.10;98.20
306;DHT22;137;48.578;9.180;2023-09-19T13:44:47;24.10;98.20
306;DHT22;137;48.578;9.180;2023-09-19T13:47:15;24.10;98.20
306;DHT22;137;48.578;9.180;2023-09-19T13:49:42;24.10;98.20
306;DHT22;137;48.578;9.180;2023-09-19T13:52:09;23.70;98.20
306;DHT22;137;48.578;9.180;2023-09-19T13:54:38;23.60;98.20
306;DHT22;137;48.578;9.180;2023-09-19T14:03:41;23.80;98.20
306;DHT22;137;48.578;9.180;2023-09-19T14:06:11;23.90;98.20
306;DHT22;137;48.578;9.180;2023-09-19T14:08:38;24.00;98.20
306;DHT22;137;48.578;9.180;2023-09-19T14:11:05;24.00;98.20
306;DHT22;137;48.578;9.180;2023-09-19T14:13:32;23.90;98.20
306;DHT22;137;48.578;9.180;2023-09-19T14:16:03;23.80;98.20
306;DHT22;137;48.578;9.180;2023-09-19T14:18:30;23.80;98.20
306;DHT22;137;48.578;9.180;2023-09-19T14:21:03;23.80;98.20
306;DHT22;137;48.578;9.180;2023-09-19T14:23:34;23.70;98.20
306;DHT22;137;48.578;9.180;2023-09-19T14:26:01;23.70;98.20
306;DHT22;137;48.578;9.180;2023-09-19T14:28:28;23.70;98.20
306;DHT22;137;48.578;9.180;2023-09-19T14:30:55;23.60;98.20
306;DHT22;137;48.578;9.180;2023-09-19T14:33:22;23.70;98.20
306;DHT22;137;48.578;9.180;2023-09-19T14:35:49;23.90;98.20
306;DHT22;137;48.578;9.180;2023-09-19T14:38:17;24.00;98.20
306;DHT22;137;48.578;9.180;2023-09-19T14:40:44;24.10;98.20
306;DHT22;137;48.578;9.180;2023-09-19T14:43:11;24.20;98.20
306;DHT22;137;48.578;9.180;2023-09-19T14:45:37;24.10;98.20
306;DHT22;137;48.578;9.180;2023-09-19T14:48:05;24.20;98.20
306;DHT22;137;48.578;9.180;2023-09-19T14:50:32;23.90;98.20
306;DHT22;137;48.578;9.180;2023-09-19T14:52:59;23.70;98.20
306;DHT22;137;48.578;9.180;2023-09-19T14:55:28;23.50;98.20
306;DHT22;137;48.578;9.180;2023-09-19T14:57:59;23.50;98.20
306;DHT22;137;48.578;9.180;2023-09-19T15:00:28;23.50;98.20
306;DHT22;137;48.578;9.180;2023-09-19T15:02:54;23.50;98.20
306;DHT22;137;48.578;9.180;2023-09-19T15:05:21;23.30;98.20
306;DHT22;137;48.578;9.180;2023-09-19T15:07:48;23.30;98.20
306;DHT22;137;48.578;9.180;2023-09-19T15:10:16;23.00;98.20
306;DHT22;137;48.578;9.180;2023-09-19T15:12:45;22.90;98.20
306;DHT22;137;48.578;9.180;2023-09-19T15:15:12;22.90;98.20
306;DHT22;137;48.578;9.180;2023-09-19T15:17:38;23.00;98.20
306;DHT22;137;48.578;9.180;2023-09-19T15:20:06;23.00;98.20
306;DHT22;137;48.578;9.180;2023-09-19T15:22:33;23.00;98.20
306;DHT22;137;48.578;9.180;2023-09-19T15:25:01;23.00;98.20
306;DHT22;137;48.578;9.180;2023-09-19T15:27:29;22.90;98.20
306;DHT22;137;48.578;9.180;2023-09-19T15:29:59;22.80;98.20
306;DHT22;137;48.578;9.180;2023-09-19T15:32:26;22.80;98.20
306;DHT22;137;48.578;9.180;2023-09-19T15:34:53;22.90;98.20
306;DHT22;137;48.578;9.180;2023-09-19T15:37:19;22.80;98.20
306;DHT22;137;48.578;9.180;2023-09-19T15:39:47;22.80;98.20
306;DHT22;137;48.578;9.180;2023-09-19T15:42:14;22.70;98.20
306;DHT22;137;48.578;9.180;2023-09-19T15:44:42;22.60;98.20
306;DHT22;137;48.578;9.180;2023-09-19T15:47:11;22.60;98.20
306;DHT22;137;48.578;9.180;2023-09-19T15:49:38;22.50;98.20
306;DHT22;137;48.578;9.180;2023-09-19T15:52:05;22.50;98.20
306;DHT22;137;48.578;9.180;2023-09-19T15:54:33;22.60;98.20
306;DHT22;137;48.578;9.180;2023-09-19T15:57:00;22.60;98.20
306;DHT22;137;48.578;9.180;2023-09-19T15:59:27;22.50;98.20
306;DHT22;137;48.578;9.180;2023-09-19T16:01:55;22.40;98.20
306;DHT22;137;48.578;9.180;2023-09-19T16:04:24;22.30;98.20
306;DHT22;137;48.578;9.180;2023-09-19T16:06:51;22.30;98.20
306;DHT22;137;48.578;9.180;2023-09-19T16:09:17;22.30;98.20
306;DHT22;137;48.578;9.180;2023-09-19T16:11:44;22.30;98.20
306;DHT22;137;48.578;9.180;2023-09-19T16:14:11;22.20;98.20
306;DHT22;137;48.578;9.180;2023-09-19T16:16:37;22.20;98.20
306;DHT22;137;48.578;9.180;2023-09-19T16:19:04;22.20;98.20
306;DHT22;137;48.578;9.180;2023-09-19T16:21:37;22.10;98.20
306;DHT22;137;48.578;9.180;2023-09-19T16:24:06;22.10;98.20
306;DHT22;137;48.578;9.180;2023-09-19T16:26:34;22.00;98.20
306;DHT22;137;48.578;9.180;2023-09-19T16:29:02;21.90;98.20
306;DHT22;137;48.578;9.180;2023-09-19T16:31:30;21.90;98.20
306;DHT22;137;48.578;9.180;2023-09-19T16:33:58;21.80;98.20
306;DHT22;137;48.578;9.180;2023-09-19T16:36:25;21.80;98.20
306;DHT22;137;48.578;9.180;2023-09-19T16:38:54;21.80;98.20
306;DHT22;137;48.578;9.180;2023-09-19T16:41:21;21.60;98.20
306;DHT22;137;48.578;9.180;2023-09-19T16:43:48;21.50;98.20
306;DHT22;137;48.578;9.180;2023-09-19T16:46:16;21.40;98.20
306;DHT22;137;48.578;9.180;2023-09-19T16:48:44;21.30;98.20
306;DHT22;137;48.578;9.180;2023-09-19T16:51:13;21.20;98.20
306;DHT22;137;48.578;9.180;2023-09-19T16:53:42;21.10;98.20
306;DHT22;137;48.578;9.180;2023-09-19T16:56:13;21.00;98.20
306;DHT22;137;48.578;9.180;2023-09-19T16:58:42;20.90;98.20
306;DHT22;137;48.578;9.180;2023-09-19T17:01:13;20.80;98.20